Telma, Washington
Current Conditions -  °F | °C
As of 10:06 AM on Wednesday 26 Nov 2014 (Local Time) from KEAT Reporting Station
Haze Haze  
Wind Chill: 38°   Ceiling: 600
Heat Index: 38°   Visibility: 6mi
Dew Point: 35°   Wind: 0mph
Humidity: 89%   Direction: NA
Pressure: 30.18"   Gusts: NA
Location:  47.7866°N, 120.856°W
Report Text: KEAT 261806Z AUTO 00000KT 6SM BR OVC006 03/02 A3018 RMK AO2 CIG 003V010 T00330017
Loading
Personal Weather Stations






























Interactive Weather Map New forecast layout! Learn more

10-Day Weather Forecast

Advertisements
Track Severe Weather on mobile